Time;durP1;ratioP1;P1;durP2;ratioP2;P2;SDS_P1;SDS_P2;PMS_P1;PMS_P2;Temp;Humidity;BMP_temperature;BMP_pressure;BME280_temperature;BME280_humidity;BME280_pressure;Samples;Min_cycle;Max_cycle;Signal;HPM_P1;HPM_P2
2022/04/26 03:38:12;;;;;;;26.33;12.85;;;6.10;99.90;;;;;;6159914;23;20064;-94
2022/04/26 03:40:37;;;;;;;22.73;12.10;;;6.10;99.90;;;;;;6159407;23;20002;-94
2022/04/26 03:43:03;;;;;;;22.23;12.70;;;6.20;99.90;;;;;;6136895;23;20017;-92
2022/04/26 03:45:29;;;;;;;28.65;14.00;;;6.20;99.90;;;;;;6159046;23;20020;-93
2022/04/26 03:47:54;;;;;;;23.08;12.43;;;6.20;99.90;;;;;;6157630;23;20009;-94
2022/04/26 03:50:21;;;;;;;18.55;10.77;;;6.10;99.90;;;;;;6157817;23;20025;-94
2022/04/26 03:52:47;;;;;;;20.02;12.57;;;6.10;99.90;;;;;;6157735;23;20458;-94
2022/04/26 03:55:12;;;;;;;22.17;12.60;;;6.10;99.90;;;;;;6157299;23;20021;-93
2022/04/26 03:57:38;;;;;;;26.67;11.65;;;6.20;99.90;;;;;;6157278;23;20456;-93
2022/04/26 04:00:05;;;;;;;20.33;11.75;;;6.20;99.90;;;;;;6132673;23;20326;-93
2022/04/26 04:02:30;;;;;;;23.30;10.50;;;6.20;99.90;;;;;;6156977;23;20010;-93
2022/04/26 04:04:56;;;;;;;21.95;12.25;;;6.20;99.90;;;;;;6156677;23;20009;-93
2022/04/26 04:07:22;;;;;;;28.60;12.38;;;6.20;99.90;;;;;;6156420;23;20058;-93
2022/04/26 04:09:47;;;;;;;19.45;11.27;;;6.20;99.90;;;;;;6156487;23;20009;-93
2022/04/26 04:12:13;;;;;;;25.33;12.25;;;6.20;99.90;;;;;;6155709;23;20008;-93
2022/04/26 04:14:38;;;;;;;21.52;11.48;;;6.20;99.90;;;;;;6131222;23;20437;-94
2022/04/26 04:17:05;;;;;;;21.27;10.10;;;6.10;99.90;;;;;;6155092;23;20009;-93
2022/04/26 04:19:31;;;;;;;22.77;11.98;;;6.10;99.90;;;;;;6155803;23;20017;-92
2022/04/26 04:21:57;;;;;;;24.40;11.77;;;6.10;99.90;;;;;;6156183;23;20006;-92
2022/04/26 04:24:22;;;;;;;26.35;11.43;;;6.10;99.90;;;;;;6157023;23;20013;-93
2022/04/26 04:26:48;;;;;;;24.92;12.70;;;6.10;99.90;;;;;;6156367;23;20430;-93
2022/04/26 04:29:14;;;;;;;17.88;10.30;;;6.10;99.90;;;;;;6132126;23;20017;-93
2022/04/26 04:31:41;;;;;;;25.98;13.30;;;6.10;99.90;;;;;;6156823;23;20438;-92
2022/04/26 04:34:06;;;;;;;25.35;11.63;;;6.20;99.90;;;;;;6156505;23;20029;-94
2022/04/26 04:36:32;;;;;;;21.38;10.55;;;6.20;99.90;;;;;;6156489;23;20009;-93
2022/04/26 04:38:58;;;;;;;23.60;11.88;;;6.20;99.90;;;;;;6155924;23;20013;-93
2022/04/26 04:41:24;;;;;;;18.17;10.50;;;6.20;99.90;;;;;;6155456;23;20012;-92
2022/04/26 04:43:50;;;;;;;23.42;10.95;;;6.20;99.90;;;;;;6158245;23;20009;-94
2022/04/26 04:46:16;;;;;;;21.50;11.93;;;6.20;99.90;;;;;;6173036;23;20025;-92
2022/04/26 04:48:42;;;;;;;22.25;12.95;;;6.20;99.90;;;;;;6158972;23;20014;-93
2022/04/26 04:51:07;;;;;;;21.92;12.27;;;6.20;99.90;;;;;;6157099;23;20080;-92
2022/04/26 04:53:34;;;;;;;22.50;11.55;;;6.20;99.90;;;;;;6156841;23;20020;-93
2022/04/26 04:56:00;;;;;;;20.17;11.82;;;6.30;99.90;;;;;;6157291;23;20006;-94
2022/04/26 04:58:25;;;;;;;27.02;13.35;;;6.30;99.90;;;;;;6157428;23;20014;-93
2022/04/26 05:00:51;;;;;;;29.75;12.63;;;6.30;99.90;;;;;;6132812;23;20037;-93
2022/04/26 05:03:17;;;;;;;21.70;11.45;;;6.30;99.90;;;;;;6132496;23;20430;-93
2022/04/26 05:05:43;;;;;;;13.77;8.90;;;6.30;99.90;;;;;;6159078;23;20008;-93
2022/04/26 05:08:10;;;;;;;20.90;11.93;;;6.40;99.90;;;;;;6133827;23;20084;-93
2022/04/26 05:10:36;;;;;;;23.88;12.10;;;6.40;99.90;;;;;;6162246;23;20005;-93
2022/04/26 05:13:03;;;;;;;13.70;8.52;;;6.40;99.90;;;;;;6176429;23;20002;-93
2022/04/26 05:15:29;;;;;;;27.02;12.50;;;6.40;99.90;;;;;;6133630;23;20100;-94
2022/04/26 05:17:55;;;;;;;30.70;13.90;;;6.40;99.90;;;;;;6133484;23;20017;-94
2022/04/26 05:20:21;;;;;;;24.45;13.00;;;6.50;99.90;;;;;;6156681;23;20096;-93
2022/04/26 05:25:37;;;;;;;19.83;12.02;;;6.50;99.90;;;;;;6140601;23;20048;-94
2022/04/26 05:28:04;;;;;;;21.52;11.65;;;6.50;99.90;;;;;;6156549;23;20005;-93
2022/04/26 05:30:29;;;;;;;23.60;12.63;;;6.60;99.90;;;;;;6156009;23;20005;-94
2022/04/26 05:32:56;;;;;;;19.58;12.30;;;6.60;99.90;;;;;;6157223;23;20088;-94
2022/04/26 05:35:22;;;;;;;16.92;9.98;;;6.60;99.90;;;;;;6133136;23;20009;-93
2022/04/26 05:37:48;;;;;;;25.60;12.77;;;6.60;99.90;;;;;;6132034;23;20006;-94
2022/04/26 05:40:14;;;;;;;26.00;12.65;;;6.70;99.90;;;;;;6161829;23;20009;-94
2022/04/26 05:42:41;;;;;;;23.90;13.93;;;6.70;99.90;;;;;;6163130;23;20014;-92
2022/04/26 05:45:07;;;;;;;27.83;12.90;;;6.70;99.90;;;;;;6157084;23;20010;-92
2022/04/26 05:47:33;;;;;;;20.33;11.40;;;6.70;99.90;;;;;;6156438;23;20077;-92
2022/04/26 05:49:58;;;;;;;19.08;11.32;;;6.70;99.90;;;;;;6133667;23;20093;-93
2022/04/26 05:52:24;;;;;;;20.95;12.00;;;6.70;99.90;;;;;;6167888;23;20032;-92
2022/04/26 05:54:51;;;;;;;24.50;11.10;;;6.70;99.90;;;;;;6174498;23;20012;-93
2022/04/26 05:57:17;;;;;;;22.88;12.30;;;6.80;99.90;;;;;;6170535;23;20315;-93
2022/04/26 05:59:42;;;;;;;20.35;11.82;;;6.80;99.90;;;;;;6172987;23;20013;-92
2022/04/26 06:02:08;;;;;;;19.60;10.88;;;6.80;99.90;;;;;;6174562;23;20089;-92
2022/04/26 06:04:37;;;;;;;27.88;11.60;;;6.90;99.90;;;;;;6174248;23;20005;-92
2022/04/26 06:07:03;;;;;;;17.55;11.27;;;6.80;99.90;;;;;;6148651;23;20010;-92
2022/04/26 06:09:29;;;;;;;20.58;10.13;;;6.90;99.90;;;;;;6161921;23;20052;-93
2022/04/26 06:11:54;;;;;;;17.98;10.80;;;6.90;99.90;;;;;;6158675;23;20457;-93
2022/04/26 06:14:21;;;;;;;16.55;9.63;;;6.90;99.90;;;;;;6131999;23;20009;-93
2022/04/26 06:16:46;;;;;;;20.77;10.60;;;6.90;99.90;;;;;;6131736;23;20013;-93
2022/04/26 06:19:12;;;;;;;21.98;10.38;;;7.00;99.90;;;;;;6156953;23;20021;-93
2022/04/26 06:21:38;;;;;;;21.67;10.82;;;7.00;99.90;;;;;;6131547;23;20077;-93
2022/04/26 06:24:04;;;;;;;16.23;9.73;;;7.00;99.90;;;;;;6130109;23;20020;-93
2022/04/26 06:26:29;;;;;;;16.73;9.93;;;7.00;99.90;;;;;;6130329;23;20056;-93
2022/04/26 06:28:56;;;;;;;14.02;9.38;;;7.10;99.90;;;;;;6132031;23;20054;-95
2022/04/26 06:31:21;;;;;;;21.92;10.48;;;7.10;99.90;;;;;;6132612;23;20017;-93
2022/04/26 06:33:47;;;;;;;17.05;10.43;;;7.20;99.90;;;;;;6157479;23;20001;-92
2022/04/26 06:36:13;;;;;;;18.50;10.07;;;7.20;99.90;;;;;;6156250;23;20474;-93
2022/04/26 06:38:39;;;;;;;18.02;9.65;;;7.20;99.90;;;;;;6132407;23;20018;-93
2022/04/26 06:41:05;;;;;;;15.18;9.55;;;7.20;99.90;;;;;;6131224;23;20024;-94
2022/04/26 06:43:33;;;;;;;17.83;10.00;;;7.30;99.90;;;;;;6133285;23;20021;-94
2022/04/26 06:46:00;;;;;;;17.15;10.38;;;7.30;99.90;;;;;;6157510;23;20006;-93
2022/04/26 06:48:26;;;;;;;19.30;9.80;;;7.40;99.90;;;;;;6156539;23;20013;-92
2022/04/26 06:50:53;;;;;;;14.85;8.18;;;7.40;99.90;;;;;;6131169;23;20010;-93
2022/04/26 06:53:18;;;;;;;11.35;7.05;;;7.40;99.90;;;;;;6131921;23;20479;-94
2022/04/26 06:55:44;;;;;;;13.60;7.90;;;7.40;99.90;;;;;;6129896;23;20033;-95
2022/04/26 06:58:10;;;;;;;11.52;7.10;;;7.40;99.90;;;;;;6134529;23;20012;-93
2022/04/26 07:00:36;;;;;;;12.90;6.45;;;7.50;99.90;;;;;;6134939;23;20005;-92
2022/04/26 07:03:02;;;;;;;13.27;6.85;;;7.50;99.90;;;;;;6137966;23;20016;-93
2022/04/26 07:05:27;;;;;;;10.52;6.88;;;7.50;99.90;;;;;;6143570;23;20010;-93
2022/04/26 07:07:53;;;;;;;16.83;8.50;;;7.60;99.90;;;;;;6135255;23;20020;-91
2022/04/26 07:10:20;;;;;;;15.02;6.55;;;7.60;99.90;;;;;;6132520;23;20009;-91
2022/04/26 07:12:46;;;;;;;9.25;6.80;;;7.70;99.90;;;;;;6133854;23;20373;-92
2022/04/26 07:15:15;;;;;;;8.20;6.65;;;7.70;99.90;;;;;;6139248;23;20008;-93
2022/04/26 07:17:42;;;;;;;11.27;6.63;;;7.70;99.90;;;;;;6141059;23;20013;-93
2022/04/26 17:52:33;;;;;;;4.07;1.42;;;12.90;74.20;;;;;;6249266;22;686740;-84
2022/04/26 17:57:48;;;;;;;3.55;1.60;;;12.80;74.30;;;;;;6253807;23;20445;-83
2022/04/26 18:00:14;;;;;;;5.28;1.20;;;12.80;74.40;;;;;;6253934;22;20006;-85
2022/04/26 18:02:41;;;;;;;5.75;1.73;;;12.70;74.50;;;;;;6253981;22;20042;-84
2022/04/26 18:05:13;;;;;;;3.22;1.42;;;12.70;74.70;;;;;;6252465;23;20008;-85
2022/04/26 18:07:39;;;;;;;4.20;1.60;;;12.50;74.70;;;;;;6254804;22;20071;-84
2022/04/26 18:10:08;;;;;;;1.83;1.30;;;12.40;75.00;;;;;;6254746;22;20036;-83
2022/04/26 18:12:34;;;;;;;4.03;1.35;;;12.40;75.40;;;;;;6252908;23;20280;-85
2022/04/26 18:15:03;;;;;;;1.67;1.13;;;12.30;75.60;;;;;;6255282;22;20007;-83
2022/04/26 18:17:29;;;;;;;2.80;2.15;;;12.20;75.80;;;;;;6254801;23;20000;-87
2022/04/26 18:19:55;;;;;;;3.15;1.05;;;12.10;76.00;;;;;;6262152;22;20031;-85
2022/04/26 18:22:20;;;;;;;4.80;1.30;;;12.00;76.30;;;;;;6262936;23;20319;-84
2022/04/26 18:24:47;;;;;;;2.83;1.20;;;11.90;76.60;;;;;;6260541;23;20411;-83
2022/04/26 19:51:30;;;;;;;4.35;1.30;;;9.40;84.50;;;;;;5163476;27;20151;-83
2022/04/26 19:53:59;;;;;;;3.15;1.60;;;9.40;85.90;;;;;;5132562;27;20023;-84
2022/04/26 19:56:27;;;;;;;3.50;1.70;;;9.30;87.40;;;;;;5128295;27;20482;-83
2022/04/26 19:58:53;;;;;;;3.28;1.50;;;9.30;88.40;;;;;;5122950;27;20019;-84
2022/04/26 20:01:19;;;;;;;3.65;1.60;;;9.30;89.40;;;;;;5128141;27;20043;-84
2022/04/26 20:03:49;;;;;;;5.07;1.60;;;9.20;90.10;;;;;;5128275;27;20027;-84
2022/04/26 20:06:19;;;;;;;6.95;1.92;;;9.20;90.60;;;;;;5120293;28;20031;-84
2022/04/26 20:08:45;;;;;;;5.93;1.85;;;9.20;91.20;;;;;;5129249;27;20129;-84
2022/04/26 20:11:12;;;;;;;2.22;1.70;;;9.10;91.30;;;;;;5127880;27;20039;-84
2022/04/26 20:13:38;;;;;;;3.97;2.00;;;9.20;91.70;;;;;;5125548;27;20023;-83
2022/04/26 20:16:04;;;;;;;3.38;1.80;;;9.20;92.10;;;;;;5127789;27;20031;-84
2022/04/26 20:18:30;;;;;;;4.03;1.85;;;9.20;92.30;;;;;;5128613;27;20019;-84
2022/04/26 20:20:55;;;;;;;4.60;1.73;;;9.20;92.60;;;;;;5106975;28;20468;-84
2022/04/26 20:23:21;;;;;;;4.43;2.17;;;9.30;92.80;;;;;;5109169;28;20016;-85
2022/04/26 20:31:15;;;;;;;3.00;1.60;;;9.30;93.30;;;;;;5107758;28;20578;-85
2022/04/26 20:33:41;;;;;;;3.30;1.65;;;9.30;93.40;;;;;;5105478;28;21075;-84
2022/04/26 20:36:07;;;;;;;4.95;1.63;;;9.20;93.60;;;;;;5103844;28;20092;-85
2022/04/26 20:38:34;;;;;;;4.00;1.85;;;9.10;93.90;;;;;;5106644;28;20012;-86
2022/04/26 20:41:00;;;;;;;6.72;2.00;;;9.10;94.10;;;;;;5107081;28;20043;-85
2022/04/26 20:43:26;;;;;;;3.85;2.28;;;9.10;94.30;;;;;;5106092;28;20012;-85
2022/04/26 20:45:53;;;;;;;3.03;1.85;;;9.00;94.40;;;;;;5104738;28;20097;-85
2022/04/26 20:48:24;;;;;;;5.18;1.88;;;9.00;94.60;;;;;;5109302;28;20028;-84
2022/04/26 20:50:51;;;;;;;5.45;1.90;;;9.00;94.80;;;;;;5108142;28;20032;-83
2022/04/26 20:53:17;;;;;;;5.13;1.73;;;9.00;94.90;;;;;;5121644;28;20395;-83
2022/04/26 20:55:43;;;;;;;6.50;1.80;;;9.00;95.00;;;;;;5125285;27;20023;-83
2022/04/26 20:58:09;;;;;;;19.13;2.58;;;9.00;95.10;;;;;;5127635;27;20023;-83
2022/04/26 21:00:34;;;;;;;12.48;1.83;;;9.00;95.20;;;;;;5124742;28;20114;-83
2022/04/26 21:03:03;;;;;;;7.25;1.55;;;9.00;95.40;;;;;;5112472;28;20110;-84
2022/04/26 21:05:29;;;;;;;4.47;1.50;;;9.00;95.40;;;;;;5114484;28;20019;-84
2022/04/26 21:07:55;;;;;;;2.50;1.30;;;9.00;95.40;;;;;;5113757;28;20110;-84
2022/04/26 21:10:21;;;;;;;2.83;1.50;;;9.00;95.30;;;;;;5103592;28;20118;-84
2022/04/26 21:15:30;;;;;;;4.60;1.95;;;9.00;95.30;;;;;;5111013;28;20045;-85
2022/04/26 21:17:57;;;;;;;4.28;2.40;;;8.90;95.20;;;;;;5103011;28;20048;-87
2022/04/26 21:20:23;;;;;;;7.18;2.10;;;8.80;95.20;;;;;;5112667;28;20046;-85
2022/04/26 21:22:49;;;;;;;4.97;2.22;;;8.70;95.20;;;;;;5122061;28;20590;-84
2022/04/26 21:25:14;;;;;;;6.63;1.92;;;8.50;95.30;;;;;;5119683;28;20028;-85
2022/04/26 21:27:41;;;;;;;4.32;2.15;;;8.50;95.40;;;;;;5111690;28;20039;-85
2022/04/26 21:30:07;;;;;;;4.70;2.25;;;8.40;95.60;;;;;;5093057;28;20024;-86
2022/04/26 21:32:33;;;;;;;4.13;1.95;;;8.30;95.80;;;;;;5094583;28;20012;-86
2022/04/26 21:34:59;;;;;;;4.38;1.70;;;8.30;95.90;;;;;;5089606;28;20024;-86
2022/04/26 21:37:25;;;;;;;7.43;2.03;;;8.30;96.10;;;;;;5091047;28;20161;-86
2022/04/26 21:39:51;;;;;;;3.17;1.42;;;8.20;96.20;;;;;;5091458;28;20123;-85
2022/04/26 21:42:16;;;;;;;6.03;1.70;;;8.20;96.20;;;;;;5092054;28;20031;-84
2022/04/26 21:44:42;;;;;;;7.00;1.92;;;8.10;96.40;;;;;;5090840;28;20020;-84
2022/04/26 21:47:08;;;;;;;10.00;1.95;;;8.10;96.40;;;;;;5097976;28;20084;-84
2022/04/26 21:52:18;;;;;;;3.40;1.60;;;8.00;96.40;;;;;;5111540;28;20046;-85
2022/04/26 21:54:44;;;;;;;3.00;1.60;;;7.90;96.50;;;;;;5112921;28;20016;-84
2022/04/26 21:57:09;;;;;;;4.68;1.80;;;7.90;96.60;;;;;;5111884;28;20038;-85
2022/04/26 21:59:35;;;;;;;3.58;1.60;;;7.90;96.80;;;;;;5113242;28;20130;-84
2022/04/26 22:02:01;;;;;;;6.03;1.80;;;7.80;96.80;;;;;;5111239;28;20019;-84
2022/04/26 22:04:27;;;;;;;4.65;2.13;;;7.80;96.90;;;;;;5110947;28;20114;-84
2022/04/26 22:06:53;;;;;;;3.35;1.50;;;7.80;97.00;;;;;;5113656;28;20031;-86
2022/04/26 22:09:20;;;;;;;6.53;2.55;;;7.70;97.10;;;;;;5113320;28;20095;-85
2022/04/26 22:11:46;;;;;;;5.13;1.58;;;7.70;97.20;;;;;;5111400;28;20028;-82
2022/04/26 22:14:12;;;;;;;3.90;1.90;;;7.60;97.20;;;;;;5110737;28;20024;-86
2022/04/26 22:16:37;;;;;;;7.10;1.85;;;7.60;97.40;;;;;;5112608;28;20090;-85
2022/04/26 22:19:03;;;;;;;7.13;1.90;;;7.60;97.60;;;;;;5111331;28;20073;-85
2022/04/26 22:21:30;;;;;;;3.70;1.63;;;7.60;97.80;;;;;;5114238;28;20032;-85
2022/04/26 22:23:56;;;;;;;6.82;1.75;;;7.60;97.90;;;;;;5107067;28;20472;-85
2022/04/26 22:26:21;;;;;;;4.80;2.15;;;7.60;98.60;;;;;;5111159;28;20028;-87
2022/04/26 22:28:47;;;;;;;4.18;1.77;;;7.60;99.00;;;;;;5100040;28;20024;-85
2022/04/26 22:31:13;;;;;;;5.82;1.80;;;7.70;99.30;;;;;;5093846;28;20032;-85
2022/04/26 22:33:39;;;;;;;3.15;1.65;;;7.70;99.70;;;;;;5092455;28;20016;-85
2022/04/26 22:36:04;;;;;;;5.00;2.38;;;7.80;99.90;;;;;;5092095;28;20092;-86
2022/04/26 22:38:30;;;;;;;3.55;1.85;;;7.80;99.90;;;;;;5092111;28;20031;-86
2022/04/26 22:40:56;;;;;;;4.05;2.22;;;7.80;99.90;;;;;;5093284;28;20173;-87
2022/04/26 22:43:21;;;;;;;3.20;1.63;;;7.90;99.90;;;;;;5091502;28;20021;-86
2022/04/26 22:45:47;;;;;;;6.00;1.65;;;7.90;99.90;;;;;;5091193;28;20117;-86
2022/04/26 22:48:12;;;;;;;8.45;2.15;;;8.00;99.90;;;;;;5090715;28;20469;-84
2022/04/26 22:50:38;;;;;;;4.75;1.95;;;8.00;99.90;;;;;;5092012;28;20577;-85
2022/04/26 22:53:04;;;;;;;4.22;1.63;;;8.00;99.90;;;;;;5091970;28;20026;-86
2022/04/26 22:55:31;;;;;;;7.88;1.88;;;8.00;99.90;;;;;;5090690;28;20133;-85
2022/04/26 22:57:57;;;;;;;4.00;1.60;;;8.00;99.90;;;;;;5090683;28;20643;-85
2022/04/26 23:00:23;;;;;;;7.63;1.90;;;8.00;99.90;;;;;;5091299;28;20115;-84
2022/04/26 23:02:49;;;;;;;4.63;1.70;;;7.90;99.90;;;;;;5090608;28;20035;-84
2022/04/26 23:05:14;;;;;;;8.07;1.83;;;7.90;99.90;;;;;;5090510;28;20020;-84
2022/04/26 23:07:41;;;;;;;4.68;2.13;;;7.80;99.90;;;;;;5091891;28;20035;-84
2022/04/26 23:10:08;;;;;;;6.70;2.90;;;7.80;99.90;;;;;;5091822;28;20039;-84
2022/04/26 23:12:37;;;;;;;4.30;1.80;;;7.70;99.90;;;;;;5090584;28;20066;-84
2022/04/26 23:15:04;;;;;;;4.80;1.90;;;7.60;99.90;;;;;;5090289;28;20364;-84
2022/04/26 23:17:29;;;;;;;6.57;2.03;;;7.60;99.90;;;;;;5092105;28;20103;-84
2022/04/26 23:19:58;;;;;;;9.07;2.30;;;7.50;99.90;;;;;;5091666;28;20115;-84
2022/04/26 23:22:24;;;;;;;8.10;2.03;;;7.50;99.90;;;;;;5091532;28;20107;-84
2022/04/26 23:24:50;;;;;;;6.25;2.00;;;7.40;99.90;;;;;;5091447;28;20104;-84
2022/04/26 23:27:17;;;;;;;5.78;2.40;;;7.40;99.90;;;;;;5090309;28;20089;-83
2022/04/26 23:29:43;;;;;;;6.93;2.08;;;7.30;99.90;;;;;;5091474;28;20020;-84
2022/04/26 23:32:10;;;;;;;8.10;2.30;;;7.30;99.90;;;;;;5090301;28;20043;-84
2022/04/26 23:37:20;;;;;;;6.95;2.35;;;7.20;99.90;;;;;;5091824;28;20070;-84
2022/04/26 23:39:48;;;;;;;5.30;2.28;;;7.20;99.90;;;;;;5091298;28;20056;-84
2022/04/26 23:42:15;;;;;;;9.75;3.30;;;7.20;99.90;;;;;;5091405;28;20031;-85
2022/04/26 23:44:42;;;;;;;8.52;3.90;;;7.10;99.90;;;;;;5089855;28;20518;-84
2022/04/26 23:47:08;;;;;;;8.93;4.13;;;7.10;99.90;;;;;;5091434;28;20020;-84
2022/04/26 23:49:34;;;;;;;8.02;3.80;;;7.20;99.90;;;;;;5089840;28;20468;-85
2022/04/26 23:54:43;;;;;;;7.07;3.25;;;7.20;99.90;;;;;;5091820;28;20027;-84
2022/04/26 23:57:09;;;;;;;8.45;3.97;;;7.10;99.90;;;;;;5090269;28;20032;-84
2022/04/26 23:59:35;;;;;;;12.00;4.30;;;7.10;99.90;;;;;;5091210;28;20503;-84
